Time;durP1;ratioP1;P1;durP2;ratioP2;P2;SDS_P1;SDS_P2;PMS_P1;PMS_P2;Temp;Humidity;BMP_temperature;BMP_pressure;BME280_temperature;BME280_humidity;BME280_pressure;Samples;Min_cycle;Max_cycle;Signal;HPM_P1;HPM_P2
2023/09/11 00:01:34;;;;;;;9.70;7.00;;;;;;;;;;4915726;29;20198;-75
2023/09/11 00:04:00;;;;;;;11.33;6.87;;;;;;;;;;4914545;29;20186;-75
2023/09/11 00:06:26;;;;;;;10.43;7.10;;;;;;;;;;4914349;29;20225;-75
2023/09/11 00:08:53;;;;;;;12.43;7.23;;;;;;;;;;4915797;29;20190;-75
2023/09/11 00:11:19;;;;;;;10.13;6.87;;;;;;;;;;4914170;29;20677;-75
2023/09/11 00:13:45;;;;;;;10.33;8.00;;;;;;;;;;4906299;29;20321;-75
2023/09/11 00:16:11;;;;;;;11.97;7.63;;;;;;;;;;4911115;29;20210;-75
2023/09/11 00:18:37;;;;;;;13.93;7.20;;;;;;;;;;4912368;29;20358;-75
2023/09/11 00:21:04;;;;;;;13.23;7.37;;;;;;;;;;4911725;29;20706;-75
2023/09/11 00:23:30;;;;;;;14.17;7.70;;;;;;;;;;4913951;29;20183;-75
2023/09/11 00:25:56;;;;;;;10.87;7.17;;;;;;;;;;4912537;29;20202;-75
2023/09/11 00:28:22;;;;;;;12.30;7.67;;;;;;;;;;4911575;29;20190;-75
2023/09/11 00:30:48;;;;;;;11.17;7.67;;;;;;;;;;4912849;29;20273;-75
2023/09/11 00:33:16;;;;;;;11.70;6.90;;;;;;;;;;4913744;29;20193;-75
2023/09/11 00:35:45;;;;;;;13.27;7.87;;;;;;;;;;4913189;29;20687;-75
2023/09/11 00:38:11;;;;;;;10.30;7.43;;;;;;;;;;4896403;29;20206;-75
2023/09/11 00:40:37;;;;;;;15.27;7.87;;;;;;;;;;4912803;29;20191;-76
2023/09/11 00:43:04;;;;;;;11.47;7.27;;;;;;;;;;4913520;29;20281;-75
2023/09/11 00:45:30;;;;;;;12.90;7.50;;;;;;;;;;4913828;29;20297;-75
2023/09/11 00:47:56;;;;;;;13.17;7.20;;;;;;;;;;4910759;29;20217;-75
2023/09/11 00:50:23;;;;;;;9.07;7.17;;;;;;;;;;4911718;29;20872;-75
2023/09/11 00:52:50;;;;;;;10.63;7.30;;;;;;;;;;4915580;29;20183;-75
2023/09/11 00:55:16;;;;;;;10.73;7.07;;;;;;;;;;4914751;29;20352;-75
2023/09/11 00:57:43;;;;;;;11.90;7.23;;;;;;;;;;4914445;29;20225;-75
2023/09/11 01:00:09;;;;;;;11.40;7.07;;;;;;;;;;4914873;29;20277;-75
2023/09/11 01:02:36;;;;;;;8.67;6.73;;;;;;;;;;4906554;29;20190;-75
2023/09/11 01:05:07;;;;;;;10.63;6.80;;;;;;;;;;4913699;29;20207;-75
2023/09/11 01:07:33;;;;;;;7.33;6.53;;;;;;;;;;4908000;29;20178;-75
2023/09/11 01:09:59;;;;;;;10.43;6.90;;;;;;;;;;4914321;29;20206;-75
2023/09/11 01:12:26;;;;;;;12.60;6.93;;;;;;;;;;4911937;29;20214;-75
2023/09/11 01:14:52;;;;;;;11.70;7.50;;;;;;;;;;4908167;29;20567;-75
2023/09/11 01:17:21;;;;;;;15.73;6.93;;;;;;;;;;4911599;29;20214;-75
2023/09/11 01:20:05;;;;;;;15.03;7.57;;;;;;;;;;4907861;29;20194;-75
2023/09/11 01:22:57;;;;;;;8.77;6.57;;;;;;;;;;4914229;29;20269;-75
2023/09/11 01:25:23;;;;;;;10.10;6.87;;;;;;;;;;4913415;29;20200;-75
2023/09/11 01:27:57;;;;;;;11.23;7.10;;;;;;;;;;4911676;29;20646;-75
2023/09/11 01:30:25;;;;;;;11.40;7.17;;;;;;;;;;4910683;29;20190;-75
2023/09/11 01:32:52;;;;;;;11.10;7.10;;;;;;;;;;4912569;29;20190;-75
2023/09/11 01:35:19;;;;;;;9.97;7.37;;;;;;;;;;4913002;29;20206;-75
2023/09/11 01:37:45;;;;;;;10.27;7.27;;;;;;;;;;4912270;29;20222;-75
2023/09/11 01:40:11;;;;;;;8.70;6.63;;;;;;;;;;4912508;29;20182;-75
2023/09/11 01:42:45;;;;;;;8.67;6.20;;;;;;;;;;4912362;29;20194;-75
2023/09/11 01:45:15;;;;;;;10.90;6.23;;;;;;;;;;4911477;29;20290;-75
2023/09/11 01:47:45;;;;;;;12.03;7.00;;;;;;;;;;4913564;29;20191;-75
2023/09/11 01:50:15;;;;;;;15.33;7.30;;;;;;;;;;4896224;29;20213;-75
2023/09/11 01:52:42;;;;;;;10.20;6.97;;;;;;;;;;4911799;29;20205;-75
2023/09/11 01:55:09;;;;;;;11.63;7.20;;;;;;;;;;4910831;29;20194;-75
2023/09/11 01:57:35;;;;;;;8.40;6.70;;;;;;;;;;4913026;29;20219;-75
2023/09/11 02:00:03;;;;;;;10.37;6.90;;;;;;;;;;4910462;29;20191;-75
2023/09/11 02:02:38;;;;;;;12.10;7.50;;;;;;;;;;4911500;29;20190;-75
2023/09/11 02:05:05;;;;;;;14.47;7.50;;;;;;;;;;4912997;29;20200;-75
2023/09/11 02:07:31;;;;;;;10.30;7.30;;;;;;;;;;4911891;29;20198;-75
2023/09/11 02:09:57;;;;;;;12.47;7.97;;;;;;;;;;4912078;29;20650;-75
2023/09/11 02:12:23;;;;;;;11.27;7.70;;;;;;;;;;4910165;29;20194;-75
2023/09/11 02:14:49;;;;;;;12.93;7.60;;;;;;;;;;4901430;29;20191;-75
2023/09/11 02:17:15;;;;;;;14.60;7.80;;;;;;;;;;4909932;29;20690;-75
2023/09/11 02:19:42;;;;;;;14.70;8.03;;;;;;;;;;4909556;29;20198;-75
2023/09/11 02:22:08;;;;;;;15.10;8.10;;;;;;;;;;4911606;29;20263;-75
2023/09/11 02:24:34;;;;;;;11.97;7.77;;;;;;;;;;4910874;29;20270;-75
2023/09/11 02:27:00;;;;;;;10.70;7.90;;;;;;;;;;4911023;29;20819;-75
2023/09/11 02:29:26;;;;;;;12.07;7.83;;;;;;;;;;4912706;29;20186;-75
2023/09/11 02:31:53;;;;;;;11.73;7.97;;;;;;;;;;4910182;29;20198;-75
2023/09/11 02:34:19;;;;;;;9.23;7.30;;;;;;;;;;4911375;29;20610;-75
2023/09/11 02:36:45;;;;;;;10.97;7.03;;;;;;;;;;4912541;29;20670;-75
2023/09/11 02:39:12;;;;;;;11.97;7.50;;;;;;;;;;4911585;29;20214;-75
2023/09/11 02:41:38;;;;;;;13.53;7.40;;;;;;;;;;4911161;29;20216;-75
2023/09/11 02:44:04;;;;;;;11.07;6.87;;;;;;;;;;4911247;29;20242;-75
2023/09/11 02:46:31;;;;;;;9.73;6.97;;;;;;;;;;4909758;29;20206;-75
2023/09/11 02:48:57;;;;;;;14.83;7.67;;;;;;;;;;4911113;29;20648;-75
2023/09/11 02:51:25;;;;;;;11.20;7.20;;;;;;;;;;4910353;29;20183;-75
2023/09/11 02:53:51;;;;;;;11.87;7.90;;;;;;;;;;4910706;29;20300;-75
2023/09/11 02:56:17;;;;;;;10.87;8.20;;;;;;;;;;4911832;29;20591;-75
2023/09/11 02:58:44;;;;;;;12.10;8.50;;;;;;;;;;4912891;29;20214;-75
2023/09/11 03:01:10;;;;;;;12.50;9.03;;;;;;;;;;4913205;29;20651;-75
2023/09/11 03:03:36;;;;;;;12.03;9.20;;;;;;;;;;4897431;29;20786;-75
2023/09/11 03:06:03;;;;;;;12.60;9.37;;;;;;;;;;4911942;29;20297;-75
2023/09/11 03:08:29;;;;;;;15.67;9.67;;;;;;;;;;4912986;29;20242;-75
2023/09/11 03:11:04;;;;;;;12.33;8.83;;;;;;;;;;4911380;29;20197;-75
2023/09/11 03:13:30;;;;;;;13.00;9.20;;;;;;;;;;4904997;29;20187;-75
2023/09/11 03:15:56;;;;;;;11.13;9.40;;;;;;;;;;4911566;29;20277;-75
2023/09/11 03:18:23;;;;;;;14.17;9.57;;;;;;;;;;4908161;29;20211;-75
2023/09/11 03:20:54;;;;;;;11.43;9.13;;;;;;;;;;4908316;29;20249;-75
2023/09/11 03:23:21;;;;;;;13.97;9.37;;;;;;;;;;4911260;29;20186;-75
2023/09/11 03:25:48;;;;;;;12.47;9.20;;;;;;;;;;4909317;29;20209;-75
2023/09/11 03:28:15;;;;;;;12.00;8.07;;;;;;;;;;4911360;29;20610;-75
2023/09/11 03:30:41;;;;;;;10.47;7.47;;;;;;;;;;4906438;29;20209;-75
2023/09/11 03:33:07;;;;;;;10.70;7.73;;;;;;;;;;4906592;29;20190;-75
2023/09/11 03:35:33;;;;;;;12.70;8.23;;;;;;;;;;4908487;29;20758;-75
2023/09/11 03:37:59;;;;;;;12.73;8.10;;;;;;;;;;4909281;29;20554;-75
2023/09/11 03:40:27;;;;;;;12.57;8.90;;;;;;;;;;4912000;29;20813;-75
2023/09/11 03:42:53;;;;;;;11.47;8.60;;;;;;;;;;4907891;29;20201;-75
2023/09/11 03:45:19;;;;;;;13.77;8.27;;;;;;;;;;4909035;29;20273;-75
2023/09/11 03:47:45;;;;;;;12.97;8.67;;;;;;;;;;4914287;29;20671;-75
2023/09/11 03:50:11;;;;;;;10.23;8.03;;;;;;;;;;4906221;29;20190;-75
2023/09/11 03:52:37;;;;;;;10.03;7.97;;;;;;;;;;4908030;29;20587;-75
2023/09/11 03:55:04;;;;;;;10.23;8.20;;;;;;;;;;4910536;29;20190;-75
2023/09/11 03:57:30;;;;;;;12.40;8.57;;;;;;;;;;4915376;29;20224;-75
2023/09/11 03:59:56;;;;;;;10.07;8.43;;;;;;;;;;4908657;29;20242;-75
2023/09/11 04:02:22;;;;;;;14.47;9.13;;;;;;;;;;4914617;29;20183;-75
2023/09/11 04:04:54;;;;;;;12.47;8.80;;;;;;;;;;4911212;29;20216;-75
2023/09/11 04:07:20;;;;;;;10.63;8.60;;;;;;;;;;4912297;29;20246;-75
2023/09/11 04:09:46;;;;;;;12.97;8.00;;;;;;;;;;4915103;29;20187;-75
2023/09/11 04:12:16;;;;;;;12.57;8.67;;;;;;;;;;4913684;29;20706;-75
2023/09/11 04:14:42;;;;;;;12.00;8.70;;;;;;;;;;4912076;29;20190;-75
2023/09/11 04:17:10;;;;;;;12.07;8.20;;;;;;;;;;4914853;29;20215;-75
2023/09/11 04:19:37;;;;;;;12.17;8.57;;;;;;;;;;4910438;29;20729;-75
2023/09/11 04:22:04;;;;;;;13.70;8.77;;;;;;;;;;4913841;29;20221;-75
2023/09/11 04:24:31;;;;;;;12.73;8.90;;;;;;;;;;4912717;29;20274;-75
2023/09/11 04:26:57;;;;;;;14.30;10.13;;;;;;;;;;4913395;29;20289;-75
2023/09/11 04:29:24;;;;;;;14.50;10.10;;;;;;;;;;4913563;29;20209;-75
2023/09/11 04:31:50;;;;;;;14.87;9.93;;;;;;;;;;4912725;29;20190;-75
2023/09/11 04:34:17;;;;;;;15.37;10.03;;;;;;;;;;4915018;29;20286;-75
2023/09/11 04:36:43;;;;;;;11.87;8.60;;;;;;;;;;4910452;29;20261;-75
2023/09/11 04:39:11;;;;;;;9.17;8.27;;;;;;;;;;4910117;29;20265;-75
2023/09/11 04:41:38;;;;;;;10.50;8.40;;;;;;;;;;4911384;29;20686;-75
2023/09/11 04:44:04;;;;;;;14.67;9.47;;;;;;;;;;4913568;29;20285;-75
2023/09/11 04:46:31;;;;;;;10.90;9.00;;;;;;;;;;4913750;29;20210;-75
2023/09/11 04:48:58;;;;;;;13.83;9.43;;;;;;;;;;4914004;29;20199;-75
2023/09/11 04:51:25;;;;;;;12.27;9.57;;;;;;;;;;4915095;29;20569;-75
2023/09/11 04:53:51;;;;;;;11.47;9.03;;;;;;;;;;4913929;29;20261;-75
2023/09/11 04:56:17;;;;;;;11.77;8.93;;;;;;;;;;4913247;29;20218;-75
2023/09/11 04:58:44;;;;;;;13.77;9.23;;;;;;;;;;4897454;29;20218;-75
2023/09/11 05:01:10;;;;;;;10.60;9.33;;;;;;;;;;4911491;29;20577;-75
2023/09/11 05:03:38;;;;;;;11.40;8.30;;;;;;;;;;4915024;29;20187;-75
2023/09/11 05:06:04;;;;;;;12.80;9.13;;;;;;;;;;4915439;29;20218;-78
2023/09/11 05:08:30;;;;;;;14.30;8.37;;;;;;;;;;4923581;29;20542;-76
2023/09/11 05:11:01;;;;;;;14.13;8.63;;;;;;;;;;4913797;29;20273;-76
2023/09/11 05:13:27;;;;;;;10.97;8.17;;;;;;;;;;4918126;29;20191;-78
2023/09/11 05:15:54;;;;;;;14.03;7.93;;;;;;;;;;4889332;29;20215;-76
2023/09/11 05:18:20;;;;;;;10.70;8.37;;;;;;;;;;4930648;29;20585;-76
2023/09/11 05:20:50;;;;;;;11.90;8.00;;;;;;;;;;4914281;29;20206;-81
2023/09/11 05:23:17;;;;;;;11.87;7.60;;;;;;;;;;4917901;29;20282;-81
2023/09/11 05:25:43;;;;;;;12.40;8.90;;;;;;;;;;4918213;29;20623;-82
2023/09/11 05:28:10;;;;;;;10.27;8.03;;;;;;;;;;4914578;29;20186;-82
2023/09/11 05:30:36;;;;;;;10.83;7.90;;;;;;;;;;4900640;29;20198;-82
2023/09/11 05:33:02;;;;;;;10.93;8.23;;;;;;;;;;4912444;29;20214;-81
2023/09/11 05:35:28;;;;;;;12.63;8.33;;;;;;;;;;4897875;29;20214;-82
2023/09/11 05:37:54;;;;;;;10.97;8.57;;;;;;;;;;4909108;29;20218;-81
2023/09/11 05:40:20;;;;;;;11.70;8.17;;;;;;;;;;4920976;29;20179;-81
2023/09/11 05:42:46;;;;;;;11.80;8.37;;;;;;;;;;4900114;29;20554;-81
2023/09/11 05:45:13;;;;;;;13.50;8.73;;;;;;;;;;4913537;29;20218;-81
2023/09/11 05:47:40;;;;;;;12.87;8.50;;;;;;;;;;4915807;29;20729;-81
2023/09/11 05:50:07;;;;;;;10.50;8.27;;;;;;;;;;4914486;29;20186;-81
2023/09/11 05:52:34;;;;;;;9.13;7.80;;;;;;;;;;4913527;29;20678;-81
2023/09/11 05:55:00;;;;;;;12.10;8.23;;;;;;;;;;4913178;29;20238;-81
2023/09/11 05:57:26;;;;;;;12.83;8.50;;;;;;;;;;4914443;29;20232;-81
2023/09/11 05:59:52;;;;;;;12.30;8.53;;;;;;;;;;4896893;29;20210;-82
2023/09/11 06:02:19;;;;;;;13.00;8.47;;;;;;;;;;4914481;29;20202;-80
2023/09/11 06:04:45;;;;;;;11.73;8.10;;;;;;;;;;4915270;29;20202;-81
2023/09/11 06:07:12;;;;;;;11.90;7.93;;;;;;;;;;4912549;29;20202;-81
2023/09/11 06:09:38;;;;;;;12.53;8.07;;;;;;;;;;4919846;29;20193;-82
2023/09/11 06:12:04;;;;;;;10.40;8.23;;;;;;;;;;4913701;29;20191;-82
2023/09/11 06:14:30;;;;;;;11.40;8.13;;;;;;;;;;4920942;29;20434;-81
2023/09/11 06:16:56;;;;;;;10.40;8.03;;;;;;;;;;4913691;29;20217;-81
2023/09/11 06:19:23;;;;;;;11.43;7.70;;;;;;;;;;4921076;29;20279;-81
2023/09/11 06:21:49;;;;;;;8.97;7.53;;;;;;;;;;4918820;29;20186;-82
2023/09/11 06:24:15;;;;;;;11.17;7.40;;;;;;;;;;4911639;29;20187;-80
2023/09/11 06:26:42;;;;;;;9.60;7.70;;;;;;;;;;4920479;29;20233;-80
2023/09/11 06:29:08;;;;;;;15.40;8.50;;;;;;;;;;4910070;29;20214;-82
2023/09/11 06:31:35;;;;;;;10.87;7.67;;;;;;;;;;4917274;29;20225;-82
2023/09/11 06:34:01;;;;;;;11.30;7.73;;;;;;;;;;4918323;29;20670;-82
2023/09/11 06:36:27;;;;;;;9.57;8.10;;;;;;;;;;4913870;29;20211;-82
2023/09/11 06:38:53;;;;;;;11.33;8.23;;;;;;;;;;4918048;29;20221;-82
2023/09/11 06:41:19;;;;;;;10.37;8.10;;;;;;;;;;4917636;29;20174;-82
2023/09/11 06:43:46;;;;;;;11.00;7.83;;;;;;;;;;4913977;29;20186;-81
2023/09/11 06:46:12;;;;;;;11.23;8.73;;;;;;;;;;4902470;29;20269;-82
2023/09/11 06:48:38;;;;;;;11.93;8.60;;;;;;;;;;4917128;29;20225;-82
2023/09/11 06:51:04;;;;;;;13.13;8.80;;;;;;;;;;4898271;29;20204;-81
2023/09/11 06:53:30;;;;;;;13.07;8.13;;;;;;;;;;4920000;29;20202;-82
2023/09/11 06:55:56;;;;;;;12.90;8.40;;;;;;;;;;4916692;29;20234;-81
2023/09/11 06:58:22;;;;;;;10.70;8.10;;;;;;;;;;4918951;29;20265;-81
2023/09/11 07:00:49;;;;;;;10.03;8.33;;;;;;;;;;4889888;29;20214;-82
2023/09/11 07:03:16;;;;;;;13.77;8.27;;;;;;;;;;4926666;29;20182;-82
2023/09/11 07:05:42;;;;;;;12.80;7.70;;;;;;;;;;4916735;29;20220;-80
2023/09/11 07:08:09;;;;;;;10.57;8.40;;;;;;;;;;4917803;29;20644;-82
2023/09/11 07:10:35;;;;;;;13.50;8.07;;;;;;;;;;4921490;29;20190;-81
2023/09/11 07:13:01;;;;;;;16.33;8.47;;;;;;;;;;4924320;29;20186;-81
2023/09/11 07:15:27;;;;;;;9.97;8.50;;;;;;;;;;4922949;29;20221;-81
2023/09/11 07:17:53;;;;;;;9.17;7.80;;;;;;;;;;4923989;29;20214;-81
2023/09/11 07:20:20;;;;;;;11.00;8.13;;;;;;;;;;4921789;29;20185;-81
2023/09/11 07:22:46;;;;;;;10.53;7.80;;;;;;;;;;4939066;29;20197;-82
2023/09/11 07:25:14;;;;;;;9.13;7.77;;;;;;;;;;4923038;29;20222;-81
2023/09/11 07:27:41;;;;;;;11.60;8.07;;;;;;;;;;4924612;29;20249;-82
2023/09/11 07:30:09;;;;;;;9.37;8.27;;;;;;;;;;4905775;29;20195;-81
2023/09/11 07:32:35;;;;;;;10.03;8.00;;;;;;;;;;4924487;29;20199;-81
2023/09/11 07:35:02;;;;;;;11.27;8.20;;;;;;;;;;4903592;29;20686;-82
2023/09/11 07:37:28;;;;;;;10.37;8.23;;;;;;;;;;4925114;29;20225;-81
2023/09/11 07:39:54;;;;;;;11.03;8.60;;;;;;;;;;4924908;29;20179;-81
2023/09/11 07:42:20;;;;;;;11.30;9.00;;;;;;;;;;4906340;29;20191;-81
2023/09/11 07:44:46;;;;;;;10.70;9.43;;;;;;;;;;4926468;29;20182;-81
2023/09/11 07:47:12;;;;;;;11.67;9.17;;;;;;;;;;4923916;29;20273;-82
2023/09/11 07:49:38;;;;;;;13.00;8.93;;;;;;;;;;4923012;29;20556;-82
2023/09/11 07:52:05;;;;;;;11.93;9.20;;;;;;;;;;4924573;29;20186;-82
2023/09/11 07:54:31;;;;;;;9.37;8.40;;;;;;;;;;4921386;29;20230;-82
2023/09/11 07:56:57;;;;;;;11.03;8.77;;;;;;;;;;4905699;29;20562;-82
2023/09/11 07:59:23;;;;;;;10.47;9.30;;;;;;;;;;4920358;29;20226;-81
2023/09/11 08:01:49;;;;;;;11.70;9.10;;;;;;;;;;4921879;29;20216;-81
2023/09/11 08:04:16;;;;;;;12.93;9.53;;;;;;;;;;4921026;29;20202;-83
2023/09/11 08:06:43;;;;;;;12.13;9.73;;;;;;;;;;4912648;29;20229;-81
2023/09/11 08:09:09;;;;;;;10.67;9.57;;;;;;;;;;4920486;29;20217;-84
2023/09/11 08:11:39;;;;;;;12.37;9.87;;;;;;;;;;4920691;29;20654;-84
2023/09/11 08:14:06;;;;;;;11.73;9.50;;;;;;;;;;4934384;29;20202;-83
2023/09/11 08:16:32;;;;;;;10.47;8.43;;;;;;;;;;4923119;29;20214;-82
2023/09/11 08:18:58;;;;;;;12.03;9.20;;;;;;;;;;4921863;29;20274;-83
2023/09/11 08:21:24;;;;;;;11.30;9.33;;;;;;;;;;4925758;29;20183;-83
2023/09/11 08:23:50;;;;;;;13.67;9.30;;;;;;;;;;4921347;29;20189;-83
2023/09/11 08:26:17;;;;;;;10.50;9.07;;;;;;;;;;4903867;29;20246;-81
2023/09/11 08:28:43;;;;;;;10.13;8.90;;;;;;;;;;4921608;29;20257;-83
2023/09/11 08:31:09;;;;;;;9.67;8.60;;;;;;;;;;4912492;29;20218;-86
2023/09/11 08:33:35;;;;;;;11.97;8.40;;;;;;;;;;4905690;29;20612;-86
2023/09/11 08:36:01;;;;;;;11.67;9.60;;;;;;;;;;4901314;29;20261;-83
2023/09/11 08:38:27;;;;;;;10.77;8.47;;;;;;;;;;4901674;29;20633;-84
2023/09/11 08:40:54;;;;;;;11.27;8.43;;;;;;;;;;4896555;29;20590;-80
2023/09/11 08:43:24;;;;;;;9.53;8.53;;;;;;;;;;4899940;29;20200;-79
2023/09/11 08:45:51;;;;;;;11.27;9.20;;;;;;;;;;4916922;29;20365;-79
2023/09/11 08:48:18;;;;;;;11.43;8.90;;;;;;;;;;4912419;29;20194;-79
2023/09/11 08:51:04;;;;;;;11.73;8.40;;;;;;;;;;4915950;29;20186;-79
2023/09/11 08:53:33;;;;;;;10.20;9.20;;;;;;;;;;4916704;29;20269;-79
2023/09/11 08:56:00;;;;;;;13.77;10.07;;;;;;;;;;4906848;29;20806;-79
2023/09/11 08:58:27;;;;;;;12.70;9.30;;;;;;;;;;4912031;29;20210;-79
2023/09/11 09:00:53;;;;;;;14.43;10.10;;;;;;;;;;4895763;29;20254;-79
2023/09/11 09:03:20;;;;;;;12.17;9.60;;;;;;;;;;4883159;29;20872;-79
2023/09/11 09:05:47;;;;;;;15.43;10.50;;;;;;;;;;4906815;29;20210;-80
2023/09/11 09:08:14;;;;;;;15.60;11.20;;;;;;;;;;4906012;29;20585;-80
2023/09/11 09:10:41;;;;;;;13.10;10.53;;;;;;;;;;4912712;29;20248;-81
2023/09/11 09:13:08;;;;;;;14.90;10.77;;;;;;;;;;4911864;29;20188;-80
2023/09/11 09:15:40;;;;;;;18.53;11.27;;;;;;;;;;4911608;29;20697;-79
2023/09/11 09:18:07;;;;;;;17.93;13.07;;;;;;;;;;4907504;29;20242;-79
2023/09/11 09:20:34;;;;;;;18.93;13.00;;;;;;;;;;4908228;29;20560;-82
2023/09/11 09:23:01;;;;;;;15.90;13.37;;;;;;;;;;4922030;29;20283;-80
2023/09/11 09:25:29;;;;;;;18.43;13.20;;;;;;;;;;4913532;29;20206;-80
2023/09/11 09:27:57;;;;;;;16.13;12.87;;;;;;;;;;4909090;29;20190;-80
2023/09/11 09:30:24;;;;;;;14.33;12.40;;;;;;;;;;4910476;29;21385;-79
2023/09/11 09:32:51;;;;;;;20.37;14.37;;;;;;;;;;4910787;29;20215;-79
2023/09/11 09:35:22;;;;;;;26.40;15.40;;;;;;;;;;4926354;29;20226;-82
2023/09/11 09:37:52;;;;;;;19.63;14.97;;;;;;;;;;4927370;29;20210;-79
2023/09/11 09:40:38;;;;;;;17.93;13.40;;;;;;;;;;4927618;29;20246;-80
2023/09/11 09:43:05;;;;;;;14.97;12.73;;;;;;;;;;4913573;29;20211;-79
2023/09/11 09:45:39;;;;;;;18.53;13.83;;;;;;;;;;4916010;29;20206;-83
2023/09/11 09:48:07;;;;;;;16.30;13.27;;;;;;;;;;4905326;29;20200;-82
2023/09/11 09:50:47;;;;;;;19.60;13.47;;;;;;;;;;4922766;29;20195;-81
2023/09/11 09:53:33;;;;;;;20.80;14.40;;;;;;;;;;4924417;29;20186;-82
2023/09/11 09:58:57;;;;;;;25.10;15.60;;;;;;;;;;4908354;29;20206;-79
2023/09/11 10:01:59;;;;;;;18.00;13.87;;;;;;;;;;4922754;29;20209;-79
2023/09/11 10:08:51;;;;;;;19.87;14.47;;;;;;;;;;4926586;29;20206;-78
2023/09/11 10:12:11;;;;;;;17.97;14.23;;;;;;;;;;4892350;29;20206;-81
2023/09/11 10:14:37;;;;;;;20.97;13.57;;;;;;;;;;4907476;29;20263;-80
2023/09/11 10:17:04;;;;;;;16.07;12.80;;;;;;;;;;4922863;29;20804;-80
2023/09/11 10:19:30;;;;;;;25.27;14.67;;;;;;;;;;4921679;29;20228;-81
2023/09/11 10:21:56;;;;;;;19.53;13.30;;;;;;;;;;4907140;29;20187;-82
2023/09/11 10:24:22;;;;;;;21.97;15.17;;;;;;;;;;4914635;29;20181;-82
2023/09/11 10:26:59;;;;;;;22.37;13.77;;;;;;;;;;4899055;29;20206;-82
2023/09/11 10:29:25;;;;;;;23.17;14.63;;;;;;;;;;4913462;29;20737;-80
2023/09/11 10:32:09;;;;;;;23.07;14.50;;;;;;;;;;4911092;29;20202;-81
2023/09/11 10:34:37;;;;;;;19.67;13.53;;;;;;;;;;4910639;29;20598;-81
2023/09/11 10:37:05;;;;;;;19.27;12.37;;;;;;;;;;4915022;29;20233;-81
2023/09/11 10:39:32;;;;;;;17.13;11.73;;;;;;;;;;4917439;29;20416;-81
2023/09/11 10:41:58;;;;;;;17.17;11.40;;;;;;;;;;4912232;29;20276;-80
2023/09/11 10:44:26;;;;;;;15.07;11.50;;;;;;;;;;4912384;29;20864;-80
2023/09/11 10:46:52;;;;;;;13.40;10.40;;;;;;;;;;4912530;29;20205;-80
2023/09/11 10:49:19;;;;;;;15.57;10.60;;;;;;;;;;4912866;29;20178;-82
2023/09/11 10:51:47;;;;;;;12.40;9.70;;;;;;;;;;4913053;29;20186;-83
2023/09/11 10:54:19;;;;;;;14.67;10.13;;;;;;;;;;4913746;29;20194;-81
2023/09/11 10:56:46;;;;;;;18.53;10.23;;;;;;;;;;4908799;29;20610;-82
2023/09/11 10:59:14;;;;;;;14.43;10.10;;;;;;;;;;4909157;29;20203;-81
2023/09/11 11:01:41;;;;;;;15.43;10.13;;;;;;;;;;4914212;29;20190;-81
2023/09/11 11:04:08;;;;;;;14.90;9.53;;;;;;;;;;4915663;29;20199;-82
2023/09/11 11:06:34;;;;;;;12.70;8.97;;;;;;;;;;4914099;29;20260;-79
2023/09/11 11:09:00;;;;;;;11.83;8.27;;;;;;;;;;4916509;29;20190;-75
2023/09/11 11:11:27;;;;;;;13.27;8.57;;;;;;;;;;4915513;29;20182;-75
2023/09/11 11:14:12;;;;;;;11.30;8.07;;;;;;;;;;4916690;29;20274;-76
2023/09/11 11:16:39;;;;;;;12.93;7.73;;;;;;;;;;4911512;29;20220;-76
2023/09/11 11:19:05;;;;;;;12.63;8.30;;;;;;;;;;4906780;29;20214;-76
2023/09/11 11:21:38;;;;;;;18.00;7.77;;;;;;;;;;4915347;29;20190;-77
2023/09/11 11:24:05;;;;;;;14.27;7.87;;;;;;;;;;4914313;29;20187;-76
2023/09/11 11:26:31;;;;;;;12.63;7.50;;;;;;;;;;4913542;29;20198;-78
2023/09/11 11:28:58;;;;;;;10.33;6.90;;;;;;;;;;4917557;29;20268;-77
2023/09/11 11:31:25;;;;;;;7.53;6.73;;;;;;;;;;4908042;29;20187;-77
2023/09/11 11:33:51;;;;;;;11.83;6.90;;;;;;;;;;4909696;29;20273;-80
2023/09/11 11:36:21;;;;;;;10.30;7.20;;;;;;;;;;4911235;29;20218;-78
2023/09/11 11:38:48;;;;;;;12.20;7.13;;;;;;;;;;4911731;29;20225;-77
2023/09/11 11:41:14;;;;;;;13.17;7.10;;;;;;;;;;4914388;29;20183;-78
2023/09/11 11:43:41;;;;;;;16.77;6.33;;;;;;;;;;4918404;29;20192;-77
2023/09/11 11:46:07;;;;;;;13.07;5.70;;;;;;;;;;4917819;29;20282;-77
2023/09/11 11:48:34;;;;;;;12.53;6.00;;;;;;;;;;4917735;29;20277;-77
2023/09/11 11:51:00;;;;;;;9.67;5.67;;;;;;;;;;4913884;29;20191;-77
2023/09/11 11:53:26;;;;;;;14.60;6.37;;;;;;;;;;4914256;29;20220;-78
2023/09/11 11:55:55;;;;;;;13.90;6.73;;;;;;;;;;4917212;29;20205;-79
2023/09/11 11:58:21;;;;;;;12.73;6.40;;;;;;;;;;4910131;29;20219;-80
2023/09/11 12:00:59;;;;;;;12.27;6.33;;;;;;;;;;4915629;29;20667;-79
2023/09/11 12:03:29;;;;;;;11.90;6.33;;;;;;;;;;4912933;29;20273;-78
2023/09/11 12:05:56;;;;;;;12.17;5.90;;;;;;;;;;4915189;29;20261;-79
2023/09/11 12:08:26;;;;;;;15.13;6.40;;;;;;;;;;4918136;29;20198;-78
2023/09/11 12:10:52;;;;;;;12.07;6.10;;;;;;;;;;4916147;29;20201;-78
2023/09/11 12:13:19;;;;;;;13.07;6.47;;;;;;;;;;4914644;29;20672;-77
2023/09/11 12:15:52;;;;;;;12.77;6.10;;;;;;;;;;4912245;29;20213;-78
2023/09/11 12:18:19;;;;;;;12.60;6.13;;;;;;;;;;4908292;29;20603;-78
2023/09/11 12:20:52;;;;;;;10.23;6.23;;;;;;;;;;4913416;29;20209;-78
2023/09/11 12:23:18;;;;;;;12.40;6.07;;;;;;;;;;4916039;29;20338;-80
2023/09/11 12:25:44;;;;;;;10.83;5.77;;;;;;;;;;4919143;29;20346;-78
2023/09/11 12:28:11;;;;;;;14.10;5.97;;;;;;;;;;4914978;29;20291;-78
2023/09/11 12:30:37;;;;;;;15.87;5.93;;;;;;;;;;4915566;29;20190;-79
2023/09/11 12:33:08;;;;;;;9.17;5.40;;;;;;;;;;4915219;29;20677;-78
2023/09/11 12:35:35;;;;;;;12.87;6.17;;;;;;;;;;4914687;29;20212;-79
2023/09/11 12:38:02;;;;;;;13.93;6.00;;;;;;;;;;4914628;29;20218;-78
2023/09/11 12:40:28;;;;;;;15.47;6.00;;;;;;;;;;4914939;29;20313;-78
2023/09/11 12:42:55;;;;;;;14.67;5.70;;;;;;;;;;4915104;29;20245;-79
2023/09/11 12:45:21;;;;;;;12.93;5.97;;;;;;;;;;4914291;29;20691;-78
2023/09/11 12:47:48;;;;;;;14.23;6.30;;;;;;;;;;4913242;29;20193;-78
2023/09/11 12:50:14;;;;;;;12.67;5.93;;;;;;;;;;4914197;29;20247;-78
2023/09/11 12:52:40;;;;;;;15.40;6.03;;;;;;;;;;4911019;29;20220;-78
2023/09/11 12:55:06;;;;;;;17.10;5.83;;;;;;;;;;4918427;29;20184;-79
2023/09/11 12:57:32;;;;;;;15.20;5.30;;;;;;;;;;4920650;29;20191;-78
2023/09/11 12:59:58;;;;;;;17.50;5.07;;;;;;;;;;4921065;29;20180;-79
2023/09/11 13:02:31;;;;;;;10.93;4.90;;;;;;;;;;4914990;29;20852;-79
2023/09/11 13:04:58;;;;;;;17.43;4.90;;;;;;;;;;4916600;29;20293;-79
2023/09/11 13:07:24;;;;;;;19.70;5.60;;;;;;;;;;4911625;29;20273;-78
2023/09/11 13:09:50;;;;;;;14.63;5.53;;;;;;;;;;4917864;29;20193;-78
2023/09/11 13:12:16;;;;;;;18.50;4.77;;;;;;;;;;4922448;29;20194;-78
2023/09/11 13:14:43;;;;;;;18.93;5.00;;;;;;;;;;4919923;29;20604;-78
2023/09/11 13:17:09;;;;;;;19.03;5.43;;;;;;;;;;4914664;29;20214;-79
2023/09/11 13:19:36;;;;;;;15.43;4.77;;;;;;;;;;4921687;29;20286;-78
2023/09/11 13:22:02;;;;;;;13.05;4.95;;;;;;;;;;4913902;29;20646;-79
2023/09/11 13:24:28;;;;;;;16.20;4.88;;;;;;;;;;4913871;29;20212;-78
2023/09/11 13:26:55;;;;;;;16.17;4.63;;;;;;;;;;4918210;29;20199;-78
2023/09/11 13:29:21;;;;;;;13.30;4.75;;;;;;;;;;4913666;29;20185;-78
2023/09/11 13:31:47;;;;;;;14.88;4.60;;;;;;;;;;4918673;29;20255;-78
2023/09/11 13:34:13;;;;;;;11.90;4.25;;;;;;;;;;4913142;29;20184;-80
2023/09/11 13:36:39;;;;;;;12.52;4.80;;;;;;;;;;4912227;29;20247;-79
2023/09/11 13:39:05;;;;;;;11.75;4.53;;;;;;;;;;4922408;29;20213;-79
2023/09/11 13:41:32;;;;;;;15.07;4.70;;;;;;;;;;4910355;29;20277;-78
2023/09/11 13:43:58;;;;;;;12.40;4.75;;;;;;;;;;4913563;29;20268;-78
2023/09/11 13:46:24;;;;;;;10.60;4.05;;;;;;;;;;4920077;29;20269;-78
2023/09/11 13:48:50;;;;;;;15.75;4.47;;;;;;;;;;4915511;29;20513;-80
2023/09/11 13:51:16;;;;;;;8.82;4.40;;;;;;;;;;4917772;29;20190;-81
2023/09/11 13:53:43;;;;;;;8.90;4.20;;;;;;;;;;4913605;29;20256;-79
2023/09/11 13:56:09;;;;;;;12.10;4.63;;;;;;;;;;4911789;29;20223;-78
2023/09/11 13:58:35;;;;;;;11.30;4.22;;;;;;;;;;4912959;29;20219;-78
2023/09/11 14:01:02;;;;;;;9.32;3.75;;;;;;;;;;4917618;29;20182;-78
2023/09/11 14:03:28;;;;;;;9.38;4.22;;;;;;;;;;4912623;29;20325;-78
2023/09/11 14:05:54;;;;;;;10.05;4.55;;;;;;;;;;4906363;29;20592;-78
2023/09/11 14:08:20;;;;;;;14.23;4.63;;;;;;;;;;4892343;29;20294;-78
2023/09/11 14:10:47;;;;;;;8.95;4.40;;;;;;;;;;4909178;29;20286;-79
2023/09/11 14:13:13;;;;;;;15.18;4.70;;;;;;;;;;4908722;29;20241;-79
2023/09/11 14:15:39;;;;;;;13.20;4.50;;;;;;;;;;4908463;29;20206;-78
2023/09/11 14:18:05;;;;;;;11.38;4.80;;;;;;;;;;4923901;29;20870;-78
2023/09/11 14:20:31;;;;;;;10.43;4.22;;;;;;;;;;4909728;29;20226;-79
2023/09/11 14:22:57;;;;;;;8.93;4.20;;;;;;;;;;4909206;29;20197;-79
2023/09/11 14:25:25;;;;;;;9.82;4.10;;;;;;;;;;4911040;29;20273;-78
2023/09/11 14:27:51;;;;;;;7.85;4.00;;;;;;;;;;4910961;29;20710;-78
2023/09/11 14:30:17;;;;;;;11.45;4.50;;;;;;;;;;4909141;29;20330;-78
2023/09/11 14:32:43;;;;;;;10.95;4.22;;;;;;;;;;4909142;29;20286;-78
2023/09/11 14:35:09;;;;;;;11.73;4.28;;;;;;;;;;4909678;29;20674;-79
2023/09/11 14:37:35;;;;;;;10.80;4.18;;;;;;;;;;4909435;29;20867;-79